createdAt,value
2018-12-03T00:01:45.996Z,52.10
2018-12-03T00:04:19.177Z,49.80
2018-12-03T00:06:49.888Z,46.53
2018-12-03T00:09:21.437Z,50.37
2018-12-03T00:11:52.196Z,47.63
2018-12-03T00:14:22.817Z,48.63
2018-12-03T00:16:52.418Z,49.93
2018-12-03T00:19:23.617Z,51.27
2018-12-03T00:21:54.447Z,49.80
2018-12-03T00:24:25.055Z,49.77
2018-12-03T00:26:55.697Z,50.20
2018-12-03T00:29:26.457Z,48.50
2018-12-03T00:31:57.806Z,48.57
2018-12-03T00:34:28.134Z,48.60
2018-12-03T00:36:59.056Z,47.27
2018-12-03T00:39:28.598Z,47.47
2018-12-03T00:41:58.937Z,48.97
2018-12-03T00:44:29.451Z,49.47
2018-12-03T00:46:59.678Z,47.90
2018-12-03T00:49:29.957Z,47.73
2018-12-03T00:52:00.200Z,50.00
2018-12-03T00:54:30.541Z,49.30
2018-12-03T00:57:00.737Z,48.73
2018-12-03T00:59:31.628Z,47.97
2018-12-03T01:02:02.757Z,49.43
2018-12-03T01:04:32.887Z,49.67
2018-12-03T01:07:03.797Z,47.70
2018-12-03T01:09:34.567Z,47.50
2018-12-03T01:12:04.908Z,49.37
2018-12-03T01:14:34.957Z,49.67
2018-12-03T01:17:05.812Z,48.47
2018-12-03T01:19:35.747Z,48.77
2018-12-03T01:22:06.929Z,46.37
2018-12-03T01:24:37.486Z,47.53
2018-12-03T01:27:07.867Z,44.37
2018-12-03T01:29:38.956Z,45.83
2018-12-03T01:32:09.097Z,46.47
2018-12-03T01:34:39.426Z,45.87
2018-12-03T01:37:09.707Z,48.63
2018-12-03T01:39:40.278Z,49.13
2018-12-03T01:42:10.237Z,50.50
2018-12-03T01:44:41.057Z,47.33
2018-12-03T01:47:11.447Z,49.33
2018-12-03T01:49:42.442Z,48.67
2018-12-03T01:52:12.757Z,47.97
2018-12-03T01:54:43.348Z,47.53
2018-12-03T01:57:14.357Z,49.57
2018-12-03T01:59:44.757Z,49.03
2018-12-03T02:02:15.188Z,46.20
2018-12-03T02:04:45.777Z,47.97
2018-12-03T02:07:16.046Z,48.60
2018-12-03T02:09:46.296Z,46.70
2018-12-03T02:12:16.648Z,49.60
2018-12-03T02:14:46.657Z,46.37
2018-12-03T02:17:16.856Z,48.23
2018-12-03T02:19:47.128Z,47.33
2018-12-03T02:22:17.346Z,47.87
2018-12-03T02:24:47.556Z,46.80
2018-12-03T02:27:18.056Z,47.97
2018-12-03T02:29:48.096Z,45.97
2018-12-03T02:32:18.537Z,48.10
2018-12-03T02:34:49.341Z,48.77
2018-12-03T02:37:19.618Z,47.17
2018-12-03T02:39:50.297Z,47.17
2018-12-03T02:42:20.497Z,46.77
2018-12-03T02:44:51.447Z,45.23
2018-12-03T02:47:21.948Z,46.30
2018-12-03T02:49:52.947Z,45.63
2018-12-03T02:52:23.516Z,44.97
2018-12-03T02:54:54.050Z,44.67
2018-12-03T02:57:24.658Z,42.33
2018-12-03T02:59:54.846Z,43.47
2018-12-03T03:02:25.296Z,44.77
2018-12-03T03:04:56.036Z,42.53
2018-12-03T03:07:26.675Z,44.23
2018-12-03T03:09:57.387Z,44.37
2018-12-03T03:12:27.927Z,43.67
2018-12-03T03:14:58.105Z,46.33
2018-12-03T03:17:28.247Z,44.97
2018-12-03T03:19:58.797Z,44.17
2018-12-03T03:22:29.446Z,44.63
2018-12-03T03:24:59.389Z,43.90
2018-12-03T03:27:29.607Z,44.37
2018-12-03T03:29:59.696Z,41.30
2018-12-03T03:32:29.731Z,42.97
2018-12-03T03:34:59.997Z,41.63
2018-12-03T03:37:30.637Z,40.77
2018-12-03T03:40:00.897Z,40.80
2018-12-03T03:42:31.897Z,40.43
2018-12-03T03:45:01.917Z,40.50
2018-12-03T03:47:32.406Z,39.30
2018-12-03T03:50:02.918Z,37.97
2018-12-03T03:52:33.427Z,37.73
2018-12-03T03:55:03.941Z,39.27
2018-12-03T03:57:34.288Z,38.93
2018-12-03T04:00:04.996Z,39.20
2018-12-03T04:02:35.467Z,40.07
2018-12-03T04:05:07.766Z,38.87
2018-12-03T04:07:39.228Z,39.77
2018-12-03T04:10:13.886Z,41.73
2018-12-03T04:12:46.857Z,40.30
2018-12-03T04:15:17.616Z,43.27
2018-12-03T04:17:47.717Z,43.03
2018-12-03T04:20:21.097Z,41.17
2018-12-03T04:22:55.386Z,41.87
2018-12-03T04:25:26.079Z,40.53
2018-12-03T04:27:56.917Z,40.93
2018-12-03T04:30:27.746Z,37.20
2018-12-03T04:32:58.536Z,39.10
2018-12-03T04:35:29.966Z,38.13
2018-12-03T04:38:00.461Z,39.20
2018-12-03T04:40:31.191Z,40.00
2018-12-03T04:43:02.298Z,40.80
2018-12-03T04:45:32.986Z,40.37
2018-12-03T04:48:03.958Z,40.70
2018-12-03T04:50:34.356Z,38.87
2018-12-03T04:53:04.396Z,38.30
2018-12-03T04:55:35.359Z,40.50
2018-12-03T04:58:06.610Z,40.53
2018-12-03T05:00:37.768Z,41.90
2018-12-03T05:03:07.757Z,41.77
2018-12-03T05:05:38.596Z,40.97
2018-12-03T05:08:09.387Z,39.63
2018-12-03T05:10:39.568Z,40.27
2018-12-03T05:13:10.448Z,42.17
2018-12-03T05:15:40.428Z,38.70
2018-12-03T05:18:14.611Z,38.70
2018-12-03T05:20:44.930Z,37.23
2018-12-03T05:23:15.058Z,39.00
2018-12-03T05:25:45.811Z,38.53
2018-12-03T05:28:15.517Z,41.50
2018-12-03T05:30:45.437Z,40.70
2018-12-03T05:33:15.879Z,38.43
2018-12-03T05:35:46.080Z,40.37
2018-12-03T05:38:16.298Z,40.23
2018-12-03T05:40:46.468Z,40.47
2018-12-03T05:43:17.017Z,39.53
2018-12-03T05:45:47.068Z,40.00
2018-12-03T05:48:17.617Z,39.73
2018-12-03T05:50:47.527Z,39.30
2018-12-03T05:53:17.518Z,39.73
2018-12-03T05:55:48.027Z,39.47
2018-12-03T05:58:17.948Z,39.70
2018-12-03T06:00:48.398Z,38.83
2018-12-03T06:03:18.497Z,40.13
2018-12-03T06:05:48.631Z,40.37
2018-12-03T06:08:18.778Z,39.97
2018-12-03T06:10:49.461Z,38.00
2018-12-03T06:13:19.718Z,38.80
2018-12-03T06:15:50.108Z,39.50
2018-12-03T06:18:20.129Z,38.90
2018-12-03T06:20:50.278Z,40.30
2018-12-03T06:23:20.868Z,39.43
2018-12-03T06:25:51.027Z,38.87
2018-12-03T06:28:21.778Z,39.60
2018-12-03T06:30:52.402Z,38.60
2018-12-03T06:33:22.674Z,39.20
2018-12-03T06:35:52.919Z,37.47
2018-12-03T06:38:23.687Z,38.97
2018-12-03T06:40:53.808Z,37.47
2018-12-03T06:43:24.379Z,36.67
2018-12-03T06:45:54.958Z,35.13
2018-12-03T06:48:25.838Z,35.00
2018-12-03T06:50:55.981Z,34.70
2018-12-03T06:53:26.038Z,36.47
2018-12-03T06:55:56.521Z,35.63
2018-12-03T06:58:26.758Z,37.70
2018-12-03T07:00:57.080Z,37.33
2018-12-03T07:03:27.380Z,37.27
2018-12-03T07:05:57.817Z,36.67
2018-12-03T07:08:28.158Z,35.37
2018-12-03T07:10:59.518Z,37.43
2018-12-03T07:13:30.319Z,38.10
2018-12-03T07:16:00.266Z,37.63
2018-12-03T07:18:30.648Z,38.57
2018-12-03T07:21:01.139Z,39.07
2018-12-03T07:23:31.188Z,39.93
2018-12-03T07:26:01.208Z,40.70
2018-12-03T07:28:31.279Z,38.27
2018-12-03T07:31:01.230Z,37.40
2018-12-03T07:33:31.409Z,38.30
2018-12-03T07:36:01.558Z,38.83
2018-12-03T07:38:31.501Z,39.17
2018-12-03T07:41:01.580Z,38.13
2018-12-03T07:43:31.628Z,40.43
2018-12-03T07:46:01.772Z,40.93
2018-12-03T07:48:31.729Z,42.77
2018-12-03T07:51:02.453Z,39.70
2018-12-03T07:53:32.919Z,38.07
2018-12-03T07:56:03.058Z,36.33
2018-12-03T07:58:32.659Z,34.27
2018-12-03T08:01:02.779Z,36.07
2018-12-03T08:03:32.819Z,37.60
2018-12-03T08:06:02.780Z,35.73
2018-12-03T08:08:32.868Z,35.80
2018-12-03T08:11:03.079Z,35.60
2018-12-03T08:13:32.988Z,37.03
2018-12-03T08:16:03.009Z,35.93
2018-12-03T08:18:33.048Z,35.63
2018-12-03T08:21:07.419Z,33.17
2018-12-03T08:23:45.859Z,31.87
2018-12-03T08:26:16.429Z,33.80
2018-12-03T08:28:46.608Z,33.73
2018-12-03T08:31:16.789Z,34.00
2018-12-03T08:33:47.029Z,32.73
2018-12-03T08:36:17.159Z,35.13
2018-12-03T08:38:47.238Z,33.00
2018-12-03T08:41:18.009Z,33.20
2018-12-03T08:43:48.599Z,33.60
2018-12-03T08:46:18.749Z,31.40
2018-12-03T08:48:49.249Z,31.90
2018-12-03T08:51:19.399Z,31.43
2018-12-03T08:53:50.228Z,30.60
2018-12-03T08:56:21.552Z,30.50
2018-12-03T08:58:51.768Z,32.23
2018-12-03T09:01:23.781Z,32.93
2018-12-03T09:04:01.021Z,32.70
2018-12-03T09:06:31.080Z,29.50
2018-12-03T09:09:01.049Z,30.07
2018-12-03T09:11:31.738Z,31.40
2018-12-03T09:14:02.329Z,31.87
2018-12-03T09:16:32.499Z,33.23
2018-12-03T09:19:02.650Z,32.30
2018-12-03T09:21:32.769Z,31.10
2018-12-03T09:24:02.747Z,30.30
2018-12-03T09:26:33.510Z,30.37
2018-12-03T09:29:03.628Z,31.27
2018-12-03T09:31:33.628Z,31.23
2018-12-03T09:34:03.719Z,32.60
2018-12-03T09:36:34.168Z,31.47
2018-12-03T09:39:13.549Z,32.03
2018-12-03T09:41:44.409Z,31.10
2018-12-03T09:44:14.409Z,33.53
2018-12-03T09:46:44.492Z,31.90
2018-12-03T09:49:14.768Z,34.27
2018-12-03T09:51:45.030Z,32.60
2018-12-03T09:54:15.299Z,31.13
2018-12-03T09:56:47.618Z,32.10
2018-12-03T09:59:20.029Z,33.10
2018-12-03T10:01:52.568Z,32.57
2018-12-03T10:04:36.428Z,32.00
2018-12-03T10:07:06.609Z,31.80
2018-12-03T10:09:41.642Z,30.37
2018-12-03T10:12:12.098Z,29.40
2018-12-03T10:14:42.909Z,30.00
2018-12-03T10:17:13.358Z,31.03
2018-12-03T10:19:43.316Z,30.50
2018-12-03T10:22:13.237Z,29.50
2018-12-03T10:24:43.249Z,30.17
2018-12-03T10:27:15.210Z,29.00
2018-12-03T10:29:45.632Z,32.17
2018-12-03T10:32:20.779Z,30.47
2018-12-03T10:34:50.949Z,31.13
2018-12-03T10:37:22.549Z,32.17
2018-12-03T10:39:53.700Z,33.40
2018-12-03T10:42:23.710Z,33.73
2018-12-03T10:44:53.779Z,36.07
2018-12-03T10:47:23.878Z,35.73
2018-12-03T10:49:53.891Z,33.63
2018-12-03T10:52:24.850Z,34.40
2018-12-03T10:54:55.069Z,33.70
2018-12-03T10:57:25.579Z,32.43
2018-12-03T10:59:56.803Z,33.50
2018-12-03T11:02:36.949Z,33.37
2018-12-03T11:05:13.869Z,35.00
2018-12-03T11:07:44.189Z,33.60
2018-12-03T11:10:13.898Z,31.77
2018-12-03T11:12:48.480Z,30.17
2018-12-03T11:15:18.778Z,31.23
2018-12-03T11:17:49.020Z,31.03
2018-12-03T11:20:19.478Z,31.67
2018-12-03T11:22:49.540Z,29.70
2018-12-03T11:25:20.778Z,30.97
2018-12-03T11:27:52.069Z,30.33
2018-12-03T11:30:22.369Z,32.90
2018-12-03T11:32:53.545Z,32.17
2018-12-03T11:35:28.669Z,32.43
2018-12-03T11:38:09.129Z,31.33
2018-12-03T11:40:49.497Z,30.63
2018-12-03T11:43:19.510Z,34.93
2018-12-03T11:45:49.409Z,34.07
2018-12-03T11:48:19.430Z,33.57
2018-12-03T11:50:49.598Z,35.07
2018-12-03T11:53:19.310Z,35.30
2018-12-03T11:55:49.579Z,34.50
2018-12-03T11:58:26.079Z,37.13
2018-12-03T12:01:02.958Z,35.43
2018-12-03T12:03:33.169Z,34.80
2018-12-03T12:06:03.089Z,35.87
2018-12-03T12:08:33.149Z,35.67
2018-12-03T12:11:02.843Z,36.00
2018-12-03T12:13:32.699Z,35.50
2018-12-03T12:16:02.950Z,36.73
2018-12-03T12:18:33.018Z,36.17
2018-12-03T12:21:03.058Z,36.40
2018-12-03T12:23:33.058Z,35.47
2018-12-03T12:26:03.318Z,34.97
2018-12-03T12:28:38.058Z,35.20
2018-12-03T12:31:03.549Z,35.90
2018-12-03T12:33:33.489Z,35.43
2018-12-03T12:36:03.549Z,32.67
2018-12-03T12:38:33.529Z,32.40
2018-12-03T12:41:03.149Z,32.73
2018-12-03T12:43:33.277Z,35.93
2018-12-03T12:46:08.213Z,37.33
2018-12-03T12:48:38.323Z,37.13
2018-12-03T12:51:08.598Z,38.07
2018-12-03T12:53:38.837Z,37.13
2018-12-03T12:56:08.728Z,37.67
2018-12-03T12:58:38.972Z,35.40
2018-12-03T13:01:09.088Z,33.70
2018-12-03T13:03:39.088Z,34.13
2018-12-03T13:06:09.288Z,33.67
2018-12-03T13:08:39.557Z,33.67
2018-12-03T13:11:09.877Z,35.30
2018-12-03T13:13:40.496Z,34.17
2018-12-03T13:16:10.816Z,34.73
2018-12-03T13:18:41.207Z,36.27
2018-12-03T13:21:11.158Z,35.27
2018-12-03T13:23:41.176Z,34.40
2018-12-03T13:26:11.696Z,35.50
2018-12-03T13:28:41.787Z,34.23
2018-12-03T13:31:11.716Z,33.83
2018-12-03T13:33:42.078Z,34.73
2018-12-03T13:36:12.470Z,34.70
2018-12-03T13:38:42.596Z,31.03
2018-12-03T13:41:12.837Z,29.03
2018-12-03T13:43:43.358Z,30.93
2018-12-03T13:46:13.576Z,31.70
2018-12-03T13:48:43.577Z,33.87
2018-12-03T13:51:13.842Z,34.87
2018-12-03T13:53:43.886Z,34.87
2018-12-03T13:56:14.237Z,36.17
2018-12-03T13:58:44.227Z,33.87
2018-12-03T14:01:14.298Z,30.93
2018-12-03T14:03:44.367Z,31.90
2018-12-03T14:06:23.637Z,30.87
2018-12-03T14:09:15.336Z,31.33
2018-12-03T14:11:58.099Z,32.60
2018-12-03T14:16:48.191Z,33.63
2018-12-03T14:19:24.127Z,34.57
2018-12-03T14:22:16.216Z,35.20
2018-12-03T14:24:46.327Z,35.00
2018-12-03T14:27:19.366Z,32.83
2018-12-03T14:29:49.267Z,31.57
2018-12-03T14:32:19.475Z,32.33
2018-12-03T14:34:49.687Z,34.63
2018-12-03T14:37:19.826Z,36.27
2018-12-03T14:39:50.037Z,40.20
2018-12-03T14:42:20.076Z,38.93
2018-12-03T14:44:49.643Z,40.10
2018-12-03T14:47:20.046Z,41.63
2018-12-03T14:49:50.386Z,42.00
2018-12-03T14:52:20.940Z,43.27
2018-12-03T14:54:51.158Z,43.53
2018-12-03T14:57:21.217Z,44.40
2018-12-03T14:59:51.305Z,43.87
2018-12-03T15:02:21.626Z,44.57
2018-12-03T15:04:52.556Z,45.87
2018-12-03T15:07:22.966Z,45.07
2018-12-03T15:09:53.688Z,47.30
2018-12-03T15:12:25.878Z,45.70
2018-12-03T15:14:56.126Z,44.60
2018-12-03T15:17:26.327Z,43.43
2018-12-03T15:19:58.454Z,43.70
2018-12-03T15:22:28.695Z,42.53
2018-12-03T15:24:58.706Z,45.70
2018-12-03T15:27:28.917Z,43.37
2018-12-03T15:29:59.107Z,42.77
2018-12-03T15:32:29.197Z,42.13
2018-12-03T15:34:59.306Z,39.63
2018-12-03T15:37:29.216Z,33.37
2018-12-03T15:39:59.326Z,33.53
2018-12-03T15:42:29.346Z,35.83
2018-12-03T15:44:59.716Z,34.60
2018-12-03T15:47:29.655Z,34.20
2018-12-03T15:49:59.666Z,35.00
2018-12-03T15:52:29.786Z,33.47
2018-12-03T15:55:00.059Z,32.27
2018-12-03T15:57:30.046Z,31.03
2018-12-03T16:00:00.387Z,30.67
2018-12-03T16:02:30.426Z,32.30
2018-12-03T16:05:00.297Z,29.80
2018-12-03T16:07:30.146Z,26.93
2018-12-03T16:10:01.947Z,27.50
2018-12-03T16:12:32.246Z,32.63
2018-12-03T16:15:02.347Z,27.87
2018-12-03T16:17:32.911Z,28.33
2018-12-03T16:20:03.426Z,26.23
2018-12-03T16:22:33.647Z,39.80
2018-12-03T16:25:03.935Z,35.40
2018-12-03T16:27:40.527Z,34.10
2018-12-03T16:30:15.091Z,33.33
2018-12-03T16:32:44.256Z,35.53
2018-12-03T16:35:14.406Z,34.10
2018-12-03T16:37:44.396Z,32.53
2018-12-03T16:40:14.586Z,32.37
2018-12-03T16:42:44.736Z,31.93
2018-12-03T16:45:14.927Z,29.27
2018-12-03T16:47:44.986Z,30.47
2018-12-03T16:50:14.948Z,30.60
2018-12-03T16:52:44.939Z,34.53
2018-12-03T16:55:14.967Z,32.43
2018-12-03T16:57:45.127Z,32.57
2018-12-03T17:00:16.506Z,32.70
2018-12-03T17:02:46.487Z,33.63
2018-12-03T17:05:16.616Z,32.33
2018-12-03T17:07:47.258Z,31.53
2018-12-03T17:10:19.403Z,31.73
2018-12-03T17:12:51.597Z,30.80
2018-12-03T17:15:21.847Z,32.63
2018-12-03T17:18:01.396Z,31.10
2018-12-03T17:20:41.115Z,29.43
2018-12-03T17:23:34.267Z,29.43
2018-12-03T17:38:15.416Z,31.33
2018-12-03T17:40:44.778Z,31.00
2018-12-03T17:43:14.353Z,30.50
2018-12-03T17:45:43.813Z,30.93
2018-12-03T17:48:13.174Z,32.87
2018-12-03T17:50:49.054Z,33.13
2018-12-03T17:53:18.395Z,33.80
2018-12-03T17:55:47.735Z,33.10
2018-12-03T17:58:16.975Z,34.57
2018-12-03T18:00:46.354Z,30.87
2018-12-03T18:03:15.814Z,32.23
2018-12-03T18:05:45.195Z,33.37
2018-12-03T18:08:14.655Z,32.07
2018-12-03T18:10:44.295Z,32.07
2018-12-03T18:13:13.676Z,31.20
2018-12-03T18:15:43.318Z,31.00
2018-12-03T18:18:12.738Z,30.33
2018-12-03T18:20:42.134Z,28.80
2018-12-03T18:23:11.694Z,30.17
2018-12-03T18:25:41.035Z,31.13
2018-12-03T18:28:10.376Z,31.17
2018-12-03T18:30:39.716Z,31.20
2018-12-03T18:33:09.056Z,30.53
2018-12-03T18:36:06.939Z,30.93
2018-12-03T18:38:34.136Z,30.63
2018-12-03T18:41:03.421Z,28.73
2018-12-03T18:43:30.196Z,26.93
2018-12-03T18:45:57.256Z,27.80
2018-12-03T18:48:24.496Z,30.53
2018-12-03T18:50:52.017Z,28.97
2018-12-03T18:53:20.051Z,28.20
2018-12-03T18:55:47.642Z,29.10
2018-12-03T18:58:14.716Z,30.27
2018-12-03T19:00:41.796Z,29.23
2018-12-03T19:03:08.940Z,29.57
2018-12-03T19:05:35.976Z,29.23
2018-12-03T19:08:03.175Z,28.73
2018-12-03T19:10:37.075Z,29.40
2018-12-03T19:13:04.096Z,30.27
2018-12-03T19:15:31.096Z,28.77
2018-12-03T19:17:58.116Z,27.30
2018-12-03T19:20:25.195Z,26.93
2018-12-03T19:22:52.176Z,33.80
2018-12-03T19:25:19.116Z,27.70
2018-12-03T19:27:46.155Z,26.43
2018-12-03T19:30:13.077Z,31.53
2018-12-03T19:32:40.136Z,31.10
2018-12-03T19:35:07.176Z,30.83
2018-12-03T19:37:34.237Z,29.87
2018-12-03T19:40:01.337Z,31.73
2018-12-03T19:42:28.458Z,30.00
2018-12-03T19:44:55.495Z,32.20
2018-12-03T19:47:23.175Z,32.57
2018-12-03T19:49:50.215Z,33.37
2018-12-03T19:52:17.274Z,32.03
2018-12-03T19:54:44.296Z,30.03
2018-12-03T19:57:11.315Z,31.43
2018-12-03T19:59:38.300Z,30.30
2018-12-03T20:02:05.476Z,30.10
2018-12-03T20:04:38.854Z,31.50
2018-12-03T20:07:05.976Z,29.60
2018-12-03T20:09:33.036Z,29.80
2018-12-03T20:12:00.521Z,30.13
2018-12-03T20:14:27.675Z,29.17
2018-12-03T20:16:54.769Z,31.47
2018-12-03T20:19:22.669Z,32.30
2018-12-03T20:21:49.728Z,31.60
2018-12-03T20:24:17.667Z,29.57
2018-12-03T20:26:44.829Z,27.47
2018-12-03T20:29:12.026Z,29.13
2018-12-03T20:31:40.628Z,28.83
2018-12-03T20:34:09.127Z,27.67
2018-12-03T20:36:37.609Z,27.77
2018-12-03T20:39:19.560Z,28.63
2018-12-03T20:41:46.716Z,28.67
2018-12-03T20:44:13.979Z,29.40
2018-12-03T20:46:42.675Z,26.87
2018-12-03T20:49:14.677Z,26.07
2018-12-03T20:51:41.839Z,25.87
2018-12-03T20:54:08.775Z,27.07
2018-12-03T20:56:42.782Z,26.53
2018-12-03T20:59:09.795Z,28.03
2018-12-03T21:01:36.817Z,27.67
2018-12-03T21:04:03.895Z,26.97
2018-12-03T21:06:30.875Z,25.40
2018-12-03T21:08:57.955Z,25.07
2018-12-03T21:11:24.976Z,25.20
2018-12-03T21:13:51.995Z,26.00
2018-12-03T21:16:18.937Z,26.67
2018-12-03T21:18:46.052Z,25.10
2018-12-03T21:21:13.370Z,26.27
2018-12-03T21:23:40.350Z,24.83
2018-12-03T21:26:07.509Z,24.53
2018-12-03T21:28:41.410Z,24.87
2018-12-03T21:31:08.430Z,22.50
2018-12-03T21:33:35.410Z,23.63
2018-12-03T21:36:02.478Z,21.33
2018-12-03T21:38:29.530Z,22.57
2018-12-03T21:40:56.570Z,21.40
2018-12-03T21:43:23.571Z,22.50
2018-12-03T21:45:50.670Z,21.90
2018-12-03T21:48:17.631Z,21.07
2018-12-03T21:50:44.650Z,21.70
2018-12-03T21:53:11.691Z,21.53
2018-12-03T21:55:38.771Z,21.27
2018-12-03T21:58:05.781Z,21.17
2018-12-03T22:00:32.870Z,22.77
2018-12-03T22:02:59.831Z,23.43
2018-12-03T22:05:26.870Z,22.83
2018-12-03T22:07:53.872Z,23.57
2018-12-03T22:10:20.891Z,23.13
2018-12-03T22:12:47.971Z,23.57
2018-12-03T22:15:14.972Z,26.07
2018-12-03T22:17:42.032Z,24.40
2018-12-03T22:20:09.252Z,22.70
2018-12-03T22:22:37.294Z,24.50
2018-12-03T22:25:04.615Z,24.37
2018-12-03T22:27:31.637Z,25.10
2018-12-03T22:30:06.951Z,25.67
2018-12-03T22:32:33.970Z,25.93
2018-12-03T22:35:01.031Z,25.93
2018-12-03T22:37:28.357Z,25.90
2018-12-03T22:39:55.371Z,27.83
2018-12-03T22:42:22.371Z,28.37
2018-12-03T22:44:49.413Z,30.63
2018-12-03T22:47:16.430Z,35.13
2018-12-03T22:49:43.473Z,38.87
2018-12-03T22:52:10.512Z,36.67
2018-12-03T22:54:37.931Z,33.17
2018-12-03T22:57:04.970Z,33.50
2018-12-03T22:59:31.991Z,33.10
2018-12-03T23:01:59.451Z,35.07
2018-12-03T23:04:26.811Z,33.80
2018-12-03T23:06:53.871Z,35.07
2018-12-03T23:09:20.935Z,30.93
2018-12-03T23:11:48.072Z,31.33
2018-12-03T23:14:15.131Z,29.93
2018-12-03T23:16:42.171Z,29.53
2018-12-03T23:19:09.190Z,29.80
2018-12-03T23:21:36.271Z,27.30
2018-12-03T23:24:03.330Z,27.03
2018-12-03T23:26:30.370Z,26.27
2018-12-03T23:28:57.369Z,23.93
2018-12-03T23:31:24.402Z,24.00
2018-12-03T23:33:51.450Z,25.73
2018-12-03T23:36:18.446Z,25.30
2018-12-03T23:38:45.570Z,26.70
2018-12-03T23:41:12.593Z,25.50
2018-12-03T23:43:39.610Z,22.50
2018-12-03T23:46:06.690Z,21.77
2018-12-03T23:48:33.653Z,23.67
2018-12-03T23:51:07.972Z,25.83
2018-12-03T23:53:34.935Z,26.67
2018-12-03T23:56:02.013Z,23.43
2018-12-03T23:58:29.060Z,22.60
